Time;durP1;ratioP1;P1;durP2;ratioP2;P2;SDS_P1;SDS_P2;PMS_P1;PMS_P2;Temp;Humidity;BMP_temperature;BMP_pressure;BME280_temperature;BME280_humidity;BME280_pressure;Samples;Min_cycle;Max_cycle;Signal;HPM_P1;HPM_P2
2022/12/19 00:00:08;;;;;;;29.02;20.67;;;;;;;0.69;100.00;101765.00;5092868;28;20052;-49
2022/12/19 00:02:41;;;;;;;30.33;21.40;;;;;;;0.70;100.00;101772.03;5090946;28;20036;-53
2022/12/19 00:05:10;;;;;;;28.63;21.17;;;;;;;0.70;100.00;101769.34;5093583;28;20556;-52
2022/12/19 00:07:37;;;;;;;28.75;21.58;;;;;;;0.72;100.00;101761.13;5093071;28;20044;-51
2022/12/19 00:10:06;;;;;;;34.22;22.30;;;;;;;0.71;100.00;101754.09;5092459;28;20379;-49
2022/12/19 00:12:33;;;;;;;29.15;21.02;;;;;;;0.72;100.00;101745.88;5090664;28;20048;-50
2022/12/19 00:15:01;;;;;;;29.00;21.40;;;;;;;0.74;100.00;101733.09;5090628;28;20043;-50
2022/12/19 00:17:30;;;;;;;26.55;19.83;;;;;;;0.74;100.00;101724.22;5092863;28;20119;-50
2022/12/19 00:19:59;;;;;;;28.48;21.02;;;;;;;0.76;100.00;101716.84;5094863;28;20040;-54
2022/12/19 00:22:27;;;;;;;30.63;21.55;;;;;;;0.77;100.00;101719.34;5094956;28;20102;-50
2022/12/19 00:24:55;;;;;;;31.40;21.95;;;;;;;0.77;100.00;101713.97;5092195;28;20040;-52
2022/12/19 00:27:22;;;;;;;28.95;20.27;;;;;;;0.79;100.00;101714.59;5091380;28;20118;-53
2022/12/19 00:29:50;;;;;;;30.83;21.30;;;;;;;0.81;100.00;101720.63;5092088;28;20115;-49
2022/12/19 00:32:18;;;;;;;29.80;21.38;;;;;;;0.81;100.00;101722.47;5089250;28;20502;-49
2022/12/19 00:34:45;;;;;;;29.17;20.92;;;;;;;0.83;100.00;101696.31;5091039;28;20444;-50
2022/12/19 00:37:13;;;;;;;33.83;22.63;;;;;;;0.85;100.00;101688.91;5090967;28;20044;-48
2022/12/19 00:39:40;;;;;;;27.75;20.10;;;;;;;0.88;100.00;101698.44;5092238;28;20039;-48
2022/12/19 00:42:08;;;;;;;27.75;20.55;;;;;;;0.87;100.00;101692.25;5090715;28;20433;-49
2022/12/19 00:44:35;;;;;;;26.98;20.15;;;;;;;0.92;100.00;101689.84;5090068;28;20456;-49
2022/12/19 00:47:03;;;;;;;27.42;18.83;;;;;;;0.93;100.00;101674.59;5090668;28;20498;-48
2022/12/19 00:49:31;;;;;;;28.45;19.70;;;;;;;0.96;100.00;101674.22;5092218;28;20047;-49
2022/12/19 00:51:59;;;;;;;27.27;19.30;;;;;;;0.95;100.00;101661.81;5087675;28;20045;-49
2022/12/19 00:54:27;;;;;;;25.52;18.02;;;;;;;0.96;100.00;101663.47;5089633;28;20040;-51
2022/12/19 00:56:55;;;;;;;27.52;19.80;;;;;;;0.96;100.00;101658.13;5074800;28;20068;-50
2022/12/19 00:59:22;;;;;;;27.20;20.17;;;;;;;0.97;100.00;101657.13;5095756;28;20048;-52
2022/12/19 01:01:56;;;;;;;27.45;20.88;;;;;;;0.98;100.00;101662.28;5094396;28;20040;-54
2022/12/19 01:04:24;;;;;;;25.38;18.20;;;;;;;1.05;100.00;101657.84;5093956;28;20040;-52
2022/12/19 01:06:55;;;;;;;26.90;19.65;;;;;;;1.05;100.00;101646.28;5095510;28;20036;-52
2022/12/19 01:09:32;;;;;;;25.20;18.83;;;;;;;1.03;100.00;101648.31;5094748;28;20051;-51
2022/12/19 01:14:47;;;;;;;24.88;17.83;;;;;;;1.06;100.00;101639.91;5094931;28;20075;-54
2022/12/19 01:17:15;;;;;;;25.75;18.98;;;;;;;1.08;100.00;101645.91;5094301;28;20047;-53
2022/12/19 01:19:42;;;;;;;26.98;19.10;;;;;;;1.11;100.00;101645.56;5095326;28;20102;-54
2022/12/19 01:22:14;;;;;;;24.23;17.60;;;;;;;1.12;100.00;101657.94;5095050;28;20052;-54
2022/12/19 01:24:41;;;;;;;24.00;17.58;;;;;;;1.13;100.00;101654.25;5094008;28;20127;-53
2022/12/19 01:27:09;;;;;;;26.77;18.25;;;;;;;1.19;100.00;101636.56;5091813;28;20094;-51
2022/12/19 01:29:38;;;;;;;23.60;17.17;;;;;;;1.19;100.00;101634.72;5095529;28;20039;-54
2022/12/19 01:32:17;;;;;;;25.48;18.52;;;;;;;1.20;100.00;101628.34;5091898;28;20110;-53
2022/12/19 01:34:45;;;;;;;28.00;18.70;;;;;;;1.24;100.00;101624.25;5083035;28;20044;-54
2022/12/19 01:37:15;;;;;;;28.23;19.02;;;;;;;1.22;100.00;101618.22;5093114;28;20071;-53
2022/12/19 01:39:43;;;;;;;24.98;18.00;;;;;;;1.21;100.00;101608.53;5095809;28;20505;-53
2022/12/19 01:42:20;;;;;;;25.42;18.33;;;;;;;1.23;100.00;101621.75;5094835;28;20521;-53
2022/12/19 01:45:08;;;;;;;25.42;18.48;;;;;;;1.25;100.00;101622.38;5095517;28;20066;-53
2022/12/19 01:47:49;;;;;;;25.33;18.73;;;;;;;1.27;100.00;101618.53;5089533;28;20093;-54
2022/12/19 01:50:31;;;;;;;28.25;18.65;;;;;;;1.28;100.00;101604.06;5094853;28;20535;-53
2022/12/19 01:52:59;;;;;;;24.60;17.63;;;;;;;1.26;100.00;101611.47;5060695;28;20032;-52
2022/12/19 01:55:27;;;;;;;25.13;17.92;;;;;;;1.28;100.00;101597.88;5093393;28;20043;-53
2022/12/19 01:57:56;;;;;;;24.88;17.58;;;;;;;1.28;100.00;101598.69;5109480;28;20040;-52
2022/12/19 02:00:25;;;;;;;22.83;16.52;;;;;;;1.33;100.00;101595.47;5094678;28;20054;-52
2022/12/19 02:03:02;;;;;;;24.80;17.63;;;;;;;1.37;100.00;101595.91;5094566;28;20444;-53
2022/12/19 02:05:33;;;;;;;25.42;17.83;;;;;;;1.36;100.00;101599.63;5093468;28;20490;-52
2022/12/19 02:08:00;;;;;;;27.02;18.35;;;;;;;1.34;100.00;101602.47;5092112;28;20065;-53
2022/12/19 02:10:29;;;;;;;25.40;16.33;;;;;;;1.45;100.00;101599.31;5094746;28;20040;-52
2022/12/19 02:12:57;;;;;;;25.52;17.73;;;;;;;1.44;100.00;101591.44;5076634;28;20123;-52
2022/12/19 02:15:28;;;;;;;23.55;17.08;;;;;;;1.50;100.00;101585.31;5093126;28;20036;-53
2022/12/19 02:18:28;;;;;;;26.52;18.13;;;;;;;1.49;100.00;101589.03;5075487;28;20509;-53
2022/12/19 02:21:36;;;;;;;23.27;16.15;;;;;;;1.63;100.00;101576.56;5079517;28;20043;-53
2022/12/19 02:24:42;;;;;;;20.63;13.93;;;;;;;1.74;100.00;101576.09;5073327;28;20096;-54
2022/12/19 02:27:31;;;;;;;20.67;13.55;;;;;;;1.69;100.00;101573.97;5071732;28;20032;-52
2022/12/19 02:30:12;;;;;;;23.45;16.67;;;;;;;1.82;100.00;101569.75;5091778;28;20048;-53
2022/12/19 02:32:49;;;;;;;23.55;16.92;;;;;;;1.78;100.00;101572.00;5069146;28;20527;-50
2022/12/19 02:35:29;;;;;;;23.40;17.25;;;;;;;1.84;100.00;101555.09;5086762;28;20513;-54
2022/12/19 02:38:26;;;;;;;24.85;17.45;;;;;;;1.75;100.00;101553.56;5080168;28;20520;-53
2022/12/19 02:41:01;;;;;;;18.02;12.50;;;;;;;1.86;100.00;101557.59;5076005;28;20123;-52
2022/12/19 02:43:33;;;;;;;23.75;15.88;;;;;;;1.89;100.00;101555.34;5075775;28;20413;-55
2022/12/19 02:46:04;;;;;;;24.02;16.63;;;;;;;1.90;100.00;101553.47;5091572;28;20044;-53
2022/12/19 02:48:34;;;;;;;22.50;16.50;;;;;;;2.08;100.00;101550.34;5070641;28;20039;-52
2022/12/19 02:51:04;;;;;;;22.88;15.95;;;;;;;1.95;100.00;101534.97;5075712;28;20052;-51
2022/12/19 02:53:32;;;;;;;24.05;16.45;;;;;;;1.94;100.00;101538.66;5092340;28;20047;-55
2022/12/19 02:56:21;;;;;;;23.42;16.88;;;;;;;1.88;100.00;101526.00;5091389;28;20111;-53
2022/12/19 02:59:21;;;;;;;23.90;16.80;;;;;;;1.88;100.00;101520.63;5065771;28;20232;-56
2022/12/19 03:02:09;;;;;;;22.10;15.70;;;;;;;1.84;100.00;101524.72;5063430;28;20090;-52
2022/12/19 03:04:58;;;;;;;25.48;17.23;;;;;;;1.81;100.00;101522.41;5075936;28;20048;-55
2022/12/19 03:07:32;;;;;;;22.45;15.98;;;;;;;1.80;100.00;101521.56;5074454;28;20515;-52
2022/12/19 03:10:00;;;;;;;14.25;9.70;;;;;;;1.85;100.00;101515.63;5075592;28;20092;-51
2022/12/19 03:12:38;;;;;;;25.20;17.38;;;;;;;1.91;100.00;101512.16;5075296;28;20047;-55
2022/12/19 03:15:07;;;;;;;22.35;15.77;;;;;;;2.02;100.00;101519.72;5059446;28;20064;-53
2022/12/19 03:17:38;;;;;;;21.67;15.32;;;;;;;2.00;100.00;101527.13;5088271;28;20445;-52
2022/12/19 03:20:19;;;;;;;23.85;15.88;;;;;;;1.95;100.00;101521.53;5091161;28;20036;-53
2022/12/19 03:22:46;;;;;;;22.13;15.63;;;;;;;1.92;100.00;101519.19;5092042;28;20052;-53
2022/12/19 03:25:15;;;;;;;21.90;15.63;;;;;;;1.90;100.00;101516.72;5091895;28;20046;-52
2022/12/19 03:27:44;;;;;;;21.60;14.38;;;;;;;1.98;100.00;101514.91;5075318;28;20122;-55
2022/12/19 03:30:13;;;;;;;24.08;16.73;;;;;;;1.98;100.00;101520.28;5075053;28;20103;-55
2022/12/19 03:32:42;;;;;;;24.33;16.35;;;;;;;1.99;100.00;101514.72;5091886;28;20044;-57
2022/12/19 03:35:17;;;;;;;23.83;15.82;;;;;;;1.96;100.00;101507.03;5090515;28;20046;-54
2022/12/19 03:37:48;;;;;;;19.40;14.20;;;;;;;1.97;100.00;101510.56;5091729;28;20040;-55
2022/12/19 03:40:19;;;;;;;21.80;15.65;;;;;;;1.96;100.00;101507.03;5091903;28;20082;-53
2022/12/19 03:45:37;;;;;;;21.92;14.68;;;;;;;2.06;100.00;101499.47;5091314;28;20083;-51
2022/12/19 03:48:23;;;;;;;20.92;14.45;;;;;;;2.09;100.00;101490.19;5092738;28;20051;-51
2022/12/19 03:50:59;;;;;;;21.40;14.07;;;;;;;2.10;100.00;101495.38;5071924;28;20035;-53
2022/12/19 03:53:57;;;;;;;17.40;11.90;;;;;;;2.19;100.00;101493.38;5082976;28;20510;-52
2022/12/19 03:56:31;;;;;;;15.80;11.13;;;;;;;2.22;100.00;101492.16;5092017;28;20047;-54
2022/12/19 03:59:20;;;;;;;18.17;13.18;;;;;;;2.21;100.00;101480.53;5091227;28;20040;-52
2022/12/19 04:01:49;;;;;;;16.88;12.10;;;;;;;2.23;100.00;101483.88;5075073;28;20471;-55
2022/12/19 04:04:17;;;;;;;13.35;9.55;;;;;;;2.28;100.00;101491.34;5092701;28;20048;-53
2022/12/19 04:06:45;;;;;;;16.25;11.25;;;;;;;2.38;100.00;101485.63;5091886;28;20040;-53
2022/12/19 04:09:13;;;;;;;15.52;10.32;;;;;;;2.43;100.00;101484.03;5092961;28;20394;-53
2022/12/19 04:11:52;;;;;;;15.80;10.33;;;;;;;2.54;100.00;101479.94;5092653;28;20044;-51
2022/12/19 04:14:29;;;;;;;15.98;11.18;;;;;;;2.58;100.00;101472.31;5075122;28;20376;-53
2022/12/19 04:17:21;;;;;;;17.20;12.18;;;;;;;2.54;100.00;101470.00;5091899;28;20445;-53
2022/12/19 04:19:49;;;;;;;13.95;9.93;;;;;;;2.60;100.00;101470.22;5091208;28;20411;-52
2022/12/19 04:22:31;;;;;;;14.52;9.40;;;;;;;2.67;100.00;101466.56;5092482;28;20038;-54
2022/12/19 04:25:04;;;;;;;17.88;10.77;;;;;;;2.68;100.00;101470.06;5091341;28;20032;-51
2022/12/19 04:27:34;;;;;;;15.52;10.60;;;;;;;2.82;100.00;101461.03;5090358;28;20044;-53
2022/12/19 04:30:03;;;;;;;17.05;11.05;;;;;;;2.82;100.00;101466.41;5089872;28;20032;-54
2022/12/19 04:32:33;;;;;;;14.05;9.48;;;;;;;2.86;100.00;101453.38;5077992;28;20081;-51
2022/12/19 04:35:01;;;;;;;16.33;10.82;;;;;;;2.87;100.00;101463.94;5095296;28;20044;-55
2022/12/19 04:37:29;;;;;;;15.02;10.63;;;;;;;2.85;100.00;101452.53;5096407;28;20044;-55
2022/12/19 04:39:58;;;;;;;15.10;10.45;;;;;;;2.99;100.00;101451.56;5095291;28;20040;-61
2022/12/19 04:42:26;;;;;;;14.70;10.13;;;;;;;2.95;100.00;101450.31;5094362;28;20050;-53
2022/12/19 04:44:56;;;;;;;11.75;7.93;;;;;;;2.93;100.00;101449.66;5096416;28;20135;-55
2022/12/19 04:47:24;;;;;;;15.85;10.65;;;;;;;2.99;100.00;101454.25;5083265;28;20066;-55
2022/12/19 04:49:52;;;;;;;13.20;9.40;;;;;;;2.93;100.00;101448.84;5095973;28;20066;-55
2022/12/19 04:52:19;;;;;;;16.35;11.23;;;;;;;2.91;100.00;101454.44;5094065;28;20068;-53
2022/12/19 04:54:47;;;;;;;14.35;9.20;;;;;;;3.08;100.00;101449.53;5095727;28;20498;-55
2022/12/19 04:57:14;;;;;;;12.55;8.20;;;;;;;3.11;100.00;101451.00;5093737;28;20411;-53
2022/12/19 04:59:42;;;;;;;15.18;10.70;;;;;;;3.06;100.00;101450.78;5095736;28;20040;-55
2022/12/19 05:02:09;;;;;;;14.13;10.02;;;;;;;3.02;100.00;101457.59;5094692;28;20052;-53
2022/12/19 05:04:37;;;;;;;13.63;9.18;;;;;;;3.01;100.00;101456.75;5096075;28;20370;-51
2022/12/19 05:07:04;;;;;;;13.40;9.18;;;;;;;3.06;100.00;101458.84;5095770;28;20456;-52
2022/12/19 05:09:32;;;;;;;11.88;8.20;;;;;;;3.09;100.00;101453.03;5076609;28;20401;-52
2022/12/19 05:12:00;;;;;;;12.25;8.65;;;;;;;3.10;100.00;101455.53;5095574;28;20048;-53
2022/12/19 05:14:28;;;;;;;15.32;9.48;;;;;;;3.19;100.00;101450.78;5094382;28;20039;-54
2022/12/19 05:16:55;;;;;;;10.73;7.40;;;;;;;3.25;100.00;101457.22;5095759;28;20397;-53
2022/12/19 05:19:28;;;;;;;12.48;5.40;;;;;;;3.32;100.00;101444.59;5094834;28;20032;-50
2022/12/19 05:21:56;;;;;;;11.52;6.65;;;;;;;3.36;100.00;101443.97;5095588;28;20127;-48
2022/12/19 05:24:23;;;;;;;8.82;5.13;;;;;;;3.64;100.00;101440.28;5094877;28;20080;-49
2022/12/19 05:26:51;;;;;;;9.80;6.47;;;;;;;3.67;100.00;101441.75;5093606;28;20109;-52
2022/12/19 05:29:21;;;;;;;9.98;5.85;;;;;;;3.75;100.00;101428.91;5091879;28;20067;-52
2022/12/19 05:31:49;;;;;;;7.88;4.63;;;;;;;3.80;100.00;101425.56;5094505;28;20036;-51
2022/12/19 05:34:17;;;;;;;7.30;4.55;;;;;;;3.97;100.00;101425.94;5095306;28;20040;-53
2022/12/19 05:36:45;;;;;;;7.63;3.50;;;;;;;4.18;100.00;101427.59;5095055;28;20044;-51
2022/12/19 05:39:13;;;;;;;8.13;4.53;;;;;;;4.29;100.00;101429.66;5073146;28;20048;-50
2022/12/19 05:41:40;;;;;;;7.95;4.63;;;;;;;4.41;100.00;101429.81;5088569;28;20052;-51
2022/12/19 05:44:09;;;;;;;8.45;4.43;;;;;;;4.41;100.00;101421.72;5093220;28;20044;-51
2022/12/19 05:46:36;;;;;;;6.28;4.20;;;;;;;4.52;100.00;101421.06;5090541;28;20047;-51
2022/12/19 05:49:04;;;;;;;8.63;3.70;;;;;;;4.77;100.00;101420.34;5087616;28;20043;-51
2022/12/19 05:51:32;;;;;;;7.25;3.83;;;;;;;4.92;100.00;101412.78;5093896;28;20123;-52
2022/12/19 05:54:00;;;;;;;6.35;3.72;;;;;;;5.07;100.00;101421.41;5095063;28;20067;-50
2022/12/19 05:56:27;;;;;;;6.30;3.50;;;;;;;5.13;100.00;101425.97;5093849;28;20110;-54
2022/12/19 05:58:56;;;;;;;7.53;4.22;;;;;;;5.13;100.00;101415.16;5094266;28;20119;-53
2022/12/19 06:01:25;;;;;;;6.75;3.88;;;;;;;5.23;100.00;101420.09;5094499;28;20048;-47
2022/12/19 06:03:53;;;;;;;7.07;3.58;;;;;;;5.20;100.00;101419.72;5093279;28;20047;-49
2022/12/19 06:06:24;;;;;;;5.32;3.00;;;;;;;5.22;100.00;101413.03;5094035;28;20437;-49
2022/12/19 06:08:53;;;;;;;6.13;3.33;;;;;;;5.25;100.00;101411.78;5092420;28;20402;-52
2022/12/19 06:11:21;;;;;;;7.10;4.00;;;;;;;5.23;100.00;101421.97;5093542;28;20567;-48
2022/12/19 06:13:49;;;;;;;6.47;3.80;;;;;;;5.15;100.00;101411.41;5093292;28;20068;-49
2022/12/19 06:16:19;;;;;;;6.13;3.08;;;;;;;5.50;100.00;101423.44;5094083;28;20426;-48
2022/12/19 06:18:47;;;;;;;4.40;3.03;;;;;;;5.41;100.00;101419.34;5092992;28;20042;-50
2022/12/19 06:21:20;;;;;;;6.40;3.75;;;;;;;5.54;100.00;101413.84;5092706;28;20157;-49
2022/12/19 06:23:47;;;;;;;4.97;3.30;;;;;;;5.67;100.00;101417.47;5093773;28;20125;-53
2022/12/19 06:26:17;;;;;;;5.93;3.22;;;;;;;5.47;100.00;101409.53;5093501;28;20486;-51
2022/12/19 06:28:47;;;;;;;6.88;3.97;;;;;;;5.38;100.00;101417.06;4387310;28;10000507;-49
2022/12/19 06:31:15;;;;;;;6.10;3.47;;;;;;;5.35;100.00;101417.53;5088799;28;20114;-49
2022/12/19 06:33:43;;;;;;;6.60;2.83;;;;;;;5.45;100.00;101412.44;5072673;28;20032;-49
2022/12/19 06:36:15;;;;;;;5.00;2.97;;;;;;;5.67;100.00;101420.19;5090863;28;20131;-49
2022/12/19 06:38:42;;;;;;;6.20;3.75;;;;;;;5.43;100.00;101428.03;5071529;28;20044;-51
2022/12/19 06:43:58;;;;;;;5.38;3.15;;;;;;;5.30;100.00;101420.06;5090459;28;20044;-51
2022/12/19 06:46:26;;;;;;;6.30;3.10;;;;;;;5.38;100.00;101421.66;5088980;28;20044;-50
2022/12/19 06:48:53;;;;;;;5.97;3.80;;;;;;;5.61;100.00;101429.19;5089546;28;20044;-51
2022/12/19 06:51:21;;;;;;;5.78;3.30;;;;;;;5.63;100.00;101422.50;5087740;28;20097;-49
2022/12/19 06:53:49;;;;;;;6.13;4.15;;;;;;;5.64;100.00;101431.44;5090485;28;20130;-51
2022/12/19 06:56:17;;;;;;;4.10;2.92;;;;;;;5.63;100.00;101429.78;5090020;28;20445;-53
2022/12/19 06:58:45;;;;;;;5.00;3.00;;;;;;;5.78;100.00;101435.69;5088549;28;20072;-52
2022/12/19 07:01:46;;;;;;;8.13;4.32;;;;;;;6.01;100.00;101436.97;5088033;28;20048;-51
2022/12/19 07:04:18;;;;;;;6.22;3.10;;;;;;;5.83;100.00;101446.69;5092568;28;20554;-51
2022/12/19 07:06:45;;;;;;;5.95;3.53;;;;;;;5.68;100.00;101430.78;5088654;28;20071;-53
2022/12/19 07:09:17;;;;;;;6.15;3.00;;;;;;;5.81;100.00;101426.31;5088942;28;20135;-52
2022/12/19 07:11:44;;;;;;;4.90;3.17;;;;;;;5.81;100.00;101432.53;5088191;28;20780;-53
2022/12/19 07:14:12;;;;;;;5.57;3.03;;;;;;;6.02;100.00;101433.25;5088658;28;20059;-51
2022/12/19 07:16:40;;;;;;;5.07;3.00;;;;;;;6.14;100.00;101444.97;5089999;28;20051;-56
2022/12/19 07:19:08;;;;;;;9.27;3.17;;;;;;;6.21;100.00;101434.91;5081810;28;20040;-55
2022/12/19 07:21:37;;;;;;;5.70;3.30;;;;;;;6.39;100.00;101444.91;5091872;28;20048;-56
2022/12/19 07:24:07;;;;;;;7.88;2.60;;;;;;;6.30;100.00;101420.03;5092318;28;20070;-56
2022/12/19 07:26:35;;;;;;;6.60;3.10;;;;;;;6.10;100.00;101435.66;5091823;28;20039;-52
2022/12/19 07:29:04;;;;;;;7.80;4.32;;;;;;;5.74;100.00;101431.78;5093179;28;20036;-55
2022/12/19 07:31:34;;;;;;;8.18;4.20;;;;;;;5.55;100.00;101428.16;5092684;28;20051;-56
2022/12/19 07:34:02;;;;;;;7.63;4.55;;;;;;;5.47;100.00;101440.09;5091763;28;20044;-56
2022/12/19 07:36:30;;;;;;;6.72;4.10;;;;;;;5.35;100.00;101433.72;5093208;28;20077;-58
2022/12/19 07:38:57;;;;;;;6.57;3.67;;;;;;;5.28;100.00;101436.47;5081428;28;20051;-57
2022/12/19 07:41:25;;;;;;;7.72;3.53;;;;;;;5.51;100.00;101445.91;5097538;28;20042;-55
2022/12/19 07:43:52;;;;;;;5.20;2.67;;;;;;;5.97;100.00;101432.03;5098746;28;20042;-54
2022/12/19 07:46:20;;;;;;;4.70;3.17;;;;;;;6.02;100.00;101434.06;5095262;28;20441;-54
2022/12/19 07:48:49;;;;;;;4.72;2.58;;;;;;;6.33;100.00;101441.25;5094133;28;20051;-58
2022/12/19 07:51:17;;;;;;;7.43;2.95;;;;;;;6.39;100.00;101440.31;5092558;28;20052;-57
2022/12/19 07:53:45;;;;;;;7.03;3.10;;;;;;;6.58;100.00;101432.22;5092640;28;20044;-54
2022/12/19 07:56:12;;;;;;;6.32;2.55;;;;;;;6.83;100.00;101435.66;5092885;28;20032;-56
2022/12/19 07:58:40;;;;;;;6.03;3.08;;;;;;;6.85;100.00;101434.59;5094137;28;20393;-56
2022/12/19 08:01:08;;;;;;;5.93;3.10;;;;;;;6.71;100.00;101444.75;5094526;28;20049;-56
2022/12/19 08:03:36;;;;;;;9.85;3.90;;;;;;;6.89;100.00;101444.75;5094404;28;20090;-59
2022/12/19 08:06:05;;;;;;;8.18;4.07;;;;;;;6.34;100.00;101448.28;5093138;28;20509;-54
2022/12/19 08:08:33;;;;;;;7.78;4.28;;;;;;;5.98;100.00;101460.72;5094831;28;20044;-56
2022/12/19 08:11:07;;;;;;;10.93;4.32;;;;;;;5.80;100.00;101457.94;5095702;28;20040;-59
2022/12/19 08:13:35;;;;;;;10.55;4.53;;;;;;;5.80;100.00;101468.75;5097070;28;20040;-59
2022/12/19 08:16:09;;;;;;;13.73;5.22;;;;;;;5.84;100.00;101463.72;5095614;28;20040;-58
2022/12/19 08:18:37;;;;;;;18.02;5.60;;;;;;;5.93;100.00;101462.41;5096010;28;20040;-54
2022/12/19 08:21:06;;;;;;;14.65;5.38;;;;;;;6.28;100.00;101462.75;5093564;28;20044;-55
2022/12/19 08:23:34;;;;;;;12.68;4.57;;;;;;;6.51;100.00;101458.53;5096335;28;20055;-57
2022/12/19 08:26:03;;;;;;;13.20;4.47;;;;;;;6.63;100.00;101456.72;5095656;28;20077;-59
2022/12/19 08:28:32;;;;;;;10.75;4.47;;;;;;;6.67;100.00;101474.19;5091616;28;20048;-57
2022/12/19 08:31:06;;;;;;;9.70;4.18;;;;;;;6.76;100.00;101456.59;5095055;28;20499;-60
2022/12/19 08:33:35;;;;;;;6.85;4.22;;;;;;;6.40;100.00;101458.22;5110353;28;20490;-58
2022/12/19 08:36:08;;;;;;;8.98;4.88;;;;;;;6.16;100.00;101457.22;5097757;28;20072;-51
2022/12/19 08:38:36;;;;;;;7.75;4.53;;;;;;;6.00;100.00;101462.38;5097425;28;20493;-58
2022/12/19 08:41:04;;;;;;;9.00;4.10;;;;;;;5.94;100.00;101464.94;5093957;28;20536;-59
2022/12/19 08:43:32;;;;;;;11.55;4.68;;;;;;;6.00;100.00;101467.78;5095601;28;20040;-59
2022/12/19 08:46:00;;;;;;;8.75;4.28;;;;;;;6.05;100.00;101466.06;5096095;28;20036;-56
2022/12/19 08:48:28;;;;;;;11.93;5.13;;;;;;;6.11;100.00;101476.00;5091315;28;20048;-56
2022/12/19 08:50:58;;;;;;;9.50;4.10;;;;;;;6.04;100.00;101471.69;5095406;28;20115;-59
2022/12/19 08:53:28;;;;;;;6.80;3.75;;;;;;;6.21;100.00;101467.38;5085208;28;20042;-58
2022/12/19 08:56:01;;;;;;;9.52;4.07;;;;;;;6.19;100.00;101489.25;5096018;28;20502;-58
2022/12/19 08:58:29;;;;;;;10.85;4.82;;;;;;;6.46;100.00;101480.88;5095450;28;20043;-56
2022/12/19 09:01:01;;;;;;;10.68;3.90;;;;;;;6.77;100.00;101463.63;5095770;28;20040;-58
2022/12/19 09:03:32;;;;;;;9.60;4.10;;;;;;;6.79;100.00;101466.97;5096252;28;20066;-59
2022/12/19 09:06:20;;;;;;;9.13;3.90;;;;;;;6.94;100.00;101463.03;5095442;28;20111;-58
2022/12/19 09:08:48;;;;;;;8.82;3.58;;;;;;;7.21;100.00;101475.16;5094054;28;20052;-58
2022/12/19 09:11:17;;;;;;;8.27;3.97;;;;;;;7.04;100.00;101474.97;5095689;28;20040;-57
2022/12/19 09:13:46;;;;;;;7.85;3.80;;;;;;;7.11;100.00;101466.75;5095539;28;20542;-58
2022/12/19 09:16:24;;;;;;;9.15;4.10;;;;;;;7.14;100.00;101474.41;5095304;28;20139;-56
2022/12/19 09:18:54;;;;;;;6.65;3.10;;;;;;;7.09;100.00;101479.69;5092013;28;20038;-57
2022/12/19 09:21:23;;;;;;;8.82;3.50;;;;;;;7.32;100.00;101480.88;5094084;28;20044;-58
2022/12/19 09:23:54;;;;;;;7.82;3.40;;;;;;;7.20;100.00;101472.69;5076927;28;20063;-58
2022/12/19 09:26:22;;;;;;;6.57;3.08;;;;;;;7.33;100.00;101487.94;5095162;28;20398;-57
2022/12/19 09:28:51;;;;;;;7.32;3.80;;;;;;;7.18;100.00;101483.75;5094520;28;20406;-55
2022/12/19 09:31:23;;;;;;;7.40;3.33;;;;;;;7.24;100.00;101474.72;5094057;28;20072;-58
2022/12/19 09:33:52;;;;;;;6.93;3.30;;;;;;;7.24;100.00;101474.72;5094052;28;20036;-58
2022/12/19 09:36:23;;;;;;;5.85;3.13;;;;;;;7.44;100.00;101484.44;5093443;28;20032;-58
2022/12/19 09:38:56;;;;;;;8.43;3.13;;;;;;;7.37;100.00;101481.00;5094810;28;20047;-56
2022/12/19 09:41:45;;;;;;;5.90;2.70;;;;;;;7.42;100.00;101481.13;5077510;28;20070;-58
2022/12/19 09:44:45;;;;;;;7.57;4.00;;;;;;;7.32;100.00;101494.44;5094936;28;20054;-58
2022/12/19 09:47:13;;;;;;;4.85;2.45;;;;;;;7.68;100.00;101491.59;5066652;28;20047;-58
2022/12/19 09:49:43;;;;;;;5.57;2.95;;;;;;;7.87;100.00;101491.53;5077254;28;20036;-58
2022/12/19 09:52:16;;;;;;;5.97;2.70;;;;;;;8.26;100.00;101484.56;5093518;28;20036;-59
2022/12/19 09:54:48;;;;;;;6.43;3.30;;;;;;;8.19;100.00;101481.16;5093276;28;20513;-58
2022/12/19 09:57:52;;;;;;;5.28;2.88;;;;;;;7.71;100.00;101476.72;5093254;28;20079;-56
2022/12/19 10:00:21;;;;;;;8.07;2.90;;;;;;;7.99;100.00;101476.06;5094590;28;20051;-58
2022/12/19 10:03:12;;;;;;;5.53;2.72;;;;;;;7.71;100.00;101484.06;5093835;28;20042;-58
2022/12/19 10:05:50;;;;;;;5.55;2.75;;;;;;;7.94;100.00;101480.53;5094359;28;20048;-54
2022/12/19 10:08:40;;;;;;;7.80;3.17;;;;;;;8.01;100.00;101492.09;5093069;28;20555;-55
2022/12/19 10:11:38;;;;;;;6.38;3.00;;;;;;;7.88;100.00;101493.16;5081928;28;20040;-55
2022/12/19 10:14:42;;;;;;;5.43;2.65;;;;;;;8.04;100.00;101495.19;5094124;28;20040;-59
2022/12/19 10:17:26;;;;;;;5.03;2.58;;;;;;;8.09;100.00;101492.59;5094126;28;20052;-56
2022/12/19 10:20:14;;;;;;;5.38;2.63;;;;;;;7.92;100.00;101483.50;5094502;28;20043;-59
2022/12/19 10:23:03;;;;;;;6.78;3.03;;;;;;;7.91;100.00;101489.97;5110383;28;20418;-60
2022/12/19 10:26:01;;;;;;;5.93;2.67;;;;;;;8.08;100.00;101473.81;5092425;28;20495;-57
2022/12/19 10:29:06;;;;;;;5.50;2.85;;;;;;;7.96;100.00;101487.41;5092359;28;20517;-56
2022/12/19 10:31:42;;;;;;;5.78;3.08;;;;;;;7.96;100.00;101489.28;5093388;28;20532;-56
2022/12/19 10:34:23;;;;;;;6.75;3.63;;;;;;;7.82;100.00;101480.53;5093111;28;20044;-57
2022/12/19 10:36:56;;;;;;;4.90;2.97;;;;;;;7.93;100.00;101474.28;5095039;28;20036;-57
2022/12/19 10:39:47;;;;;;;6.05;2.90;;;;;;;7.91;100.00;101487.25;5092900;28;20048;-55
2022/12/19 10:42:37;;;;;;;4.68;2.60;;;;;;;7.98;100.00;101482.53;5093513;28;20494;-58
2022/12/19 10:45:18;;;;;;;7.38;2.90;;;;;;;8.27;100.00;101493.53;5093522;28;20048;-58
2022/12/19 10:47:56;;;;;;;4.10;2.60;;;;;;;8.21;100.00;101494.50;5094119;28;20048;-58
2022/12/19 10:50:27;;;;;;;5.05;2.83;;;;;;;8.28;100.00;101489.78;5092685;28;20067;-54
2022/12/19 10:52:55;;;;;;;3.78;2.17;;;;;;;8.09;100.00;101481.75;5090425;28;20074;-58
2022/12/19 10:55:38;;;;;;;3.33;2.28;;;;;;;8.07;100.00;101478.44;5091699;28;20036;-59
2022/12/19 10:58:26;;;;;;;7.10;3.13;;;;;;;8.37;100.00;101482.94;5088815;28;20113;-57
2022/12/19 11:01:11;;;;;;;4.38;2.55;;;;;;;8.53;100.00;101476.78;5084565;28;20048;-53
2022/12/19 11:03:43;;;;;;;6.20;2.88;;;;;;;8.52;100.00;101477.88;5085773;28;20394;-57
2022/12/19 11:06:41;;;;;;;6.45;3.80;;;;;;;7.94;100.00;101484.09;5082017;28;20425;-57
2022/12/19 11:09:28;;;;;;;6.57;3.55;;;;;;;7.46;100.00;101475.03;5092009;28;20115;-58
2022/12/19 11:11:58;;;;;;;7.85;4.22;;;;;;;7.19;100.00;101471.88;5090686;28;20056;-55
2022/12/19 11:15:09;;;;;;;6.03;3.60;;;;;;;7.02;100.00;101476.25;5092409;28;20117;-56
2022/12/19 11:18:08;;;;;;;9.38;4.68;;;;;;;6.92;100.00;101470.56;5093408;28;20040;-58
2022/12/19 11:20:59;;;;;;;6.97;3.78;;;;;;;7.02;100.00;101462.69;5092288;28;20074;-55
2022/12/19 11:23:59;;;;;;;7.63;4.15;;;;;;;7.07;100.00;101467.44;5091175;28;20056;-56
2022/12/19 11:26:49;;;;;;;7.90;4.05;;;;;;;7.08;100.00;101447.44;5090298;28;20409;-53
2022/12/19 11:29:44;;;;;;;7.75;4.13;;;;;;;7.04;100.00;101452.47;5093403;28;20128;-55
2022/12/19 11:32:38;;;;;;;28.23;9.13;;;;;;;7.47;100.00;101440.59;5091375;28;20034;-52
2022/12/19 11:35:20;;;;;;;32.17;11.38;;;;;;;7.88;100.00;101438.91;5092221;28;20441;-58
2022/12/19 11:37:51;;;;;;;24.40;8.77;;;;;;;8.25;100.00;101444.94;5093293;28;20483;-55
2022/12/19 11:40:32;;;;;;;27.08;10.82;;;;;;;8.31;100.00;101446.69;5091803;28;20047;-57
2022/12/19 11:43:12;;;;;;;23.70;10.05;;;;;;;8.27;100.00;101444.69;5091506;28;20044;-57
2022/12/19 11:46:15;;;;;;;23.92;9.75;;;;;;;8.25;100.00;101435.94;5090252;28;20044;-57
2022/12/19 11:48:55;;;;;;;21.90;8.77;;;;;;;8.17;100.00;101441.75;5092329;28;20058;-56
2022/12/19 11:51:31;;;;;;;18.75;6.72;;;;;;;8.11;100.00;101441.63;5093035;28;20449;-57
2022/12/19 11:54:07;;;;;;;8.52;3.95;;;;;;;7.80;100.00;101440.06;5071953;28;20055;-55